createdAt,value
2018-07-26T00:04:21.609Z,20.09
2018-07-26T00:09:26.489Z,19.95
2018-07-26T00:14:31.233Z,19.90
2018-07-26T00:19:35.992Z,19.81
2018-07-26T00:24:40.790Z,19.67
2018-07-26T00:29:45.510Z,19.57
2018-07-26T00:34:50.287Z,19.59
2018-07-26T00:39:54.992Z,19.59
2018-07-26T00:44:59.762Z,19.54
2018-07-26T00:50:04.544Z,19.40
2018-07-26T00:55:09.377Z,19.29
2018-07-26T01:00:14.154Z,19.16
2018-07-26T01:05:18.927Z,19.12
2018-07-26T01:10:23.668Z,19.12
2018-07-26T01:15:28.374Z,19.12
2018-07-26T01:20:33.099Z,18.96
2018-07-26T01:25:37.931Z,18.99
2018-07-26T01:30:42.700Z,18.86
2018-07-26T01:35:47.517Z,18.82
2018-07-26T01:40:52.231Z,18.73
2018-07-26T01:45:56.929Z,18.65
2018-07-26T01:51:01.660Z,18.56
2018-07-26T01:56:07.203Z,18.51
2018-07-26T02:01:12.884Z,18.51
2018-07-26T02:06:17.652Z,18.49
2018-07-26T02:11:22.583Z,18.38
2018-07-26T02:16:27.526Z,18.30
2018-07-26T02:21:32.684Z,18.19
2018-07-26T02:26:37.425Z,18.19
2018-07-26T02:31:42.226Z,18.14
2018-07-26T02:36:47.030Z,18.02
2018-07-26T02:41:51.686Z,17.96
2018-07-26T02:46:56.427Z,17.97
2018-07-26T02:52:01.066Z,17.95
2018-07-26T02:57:05.910Z,17.84
2018-07-26T03:02:10.798Z,17.87
2018-07-26T03:07:15.522Z,17.75
2018-07-26T03:12:20.284Z,17.79
2018-07-26T03:17:25.012Z,17.64
2018-07-26T03:22:29.771Z,17.64
2018-07-26T03:27:34.578Z,17.58
2018-07-26T03:32:39.286Z,17.81
2018-07-26T03:37:44.026Z,17.55
2018-07-26T03:42:48.910Z,17.62
2018-07-26T03:47:53.610Z,17.54
2018-07-26T03:52:58.391Z,17.53
2018-07-26T03:58:03.399Z,17.57
2018-07-26T04:03:08.192Z,17.66
2018-07-26T04:08:12.964Z,17.84
2018-07-26T04:13:17.757Z,18.00
2018-07-26T04:18:22.490Z,19.37
2018-07-26T04:23:27.281Z,19.95
2018-07-26T04:28:31.941Z,21.14
2018-07-26T04:33:36.669Z,21.35
2018-07-26T04:38:41.444Z,22.08
2018-07-26T04:43:46.282Z,22.90
2018-07-26T04:48:51.170Z,23.18
2018-07-26T04:53:56.124Z,23.31
2018-07-26T04:59:00.857Z,24.08
2018-07-26T05:04:05.561Z,24.62
2018-07-26T05:09:11.964Z,23.95
2018-07-26T05:14:16.831Z,25.32
2018-07-26T05:19:21.594Z,25.95
2018-07-26T05:24:26.356Z,26.84
2018-07-26T05:29:31.091Z,26.52
2018-07-26T05:34:35.943Z,25.51
2018-07-26T05:39:40.812Z,25.23
2018-07-26T05:44:45.585Z,24.93
2018-07-26T05:49:50.293Z,25.89
2018-07-26T05:54:54.991Z,26.23
2018-07-26T05:59:59.842Z,26.89
2018-07-26T06:05:04.874Z,26.17
2018-07-26T06:10:10.266Z,26.87
2018-07-26T06:15:15.120Z,26.55
2018-07-26T06:20:19.884Z,26.68
2018-07-26T06:25:24.608Z,25.87
2018-07-26T06:30:29.293Z,26.71
2018-07-26T06:35:34.185Z,26.25
2018-07-26T06:40:38.920Z,26.24
2018-07-26T06:45:43.603Z,26.23
2018-07-26T06:50:48.351Z,26.77
2018-07-26T06:55:53.053Z,27.39
2018-07-26T07:00:57.866Z,26.79
2018-07-26T07:06:02.645Z,27.15
2018-07-26T07:11:07.354Z,27.03
2018-07-26T07:16:12.482Z,26.93
2018-07-26T07:21:17.800Z,27.45
2018-07-26T07:26:22.507Z,28.32
2018-07-26T07:31:27.438Z,28.28
2018-07-26T07:36:32.166Z,28.67
2018-07-26T07:41:37.083Z,29.17
2018-07-26T07:46:41.876Z,29.39
2018-07-26T07:51:46.662Z,30.19
2018-07-26T07:56:51.462Z,30.02
2018-07-26T08:01:56.272Z,30.29
2018-07-26T08:07:01.037Z,30.80
2018-07-26T08:12:05.798Z,31.21
2018-07-26T08:17:10.792Z,31.51
2018-07-26T08:22:15.646Z,31.07
2018-07-26T08:27:20.399Z,31.50
2018-07-26T08:32:25.202Z,31.58
2018-07-26T08:37:29.972Z,31.33
2018-07-26T08:42:34.732Z,32.11
2018-07-26T08:47:39.483Z,32.23
2018-07-26T08:52:44.208Z,31.34
2018-07-26T08:57:48.990Z,32.43
2018-07-26T09:02:53.761Z,32.40
2018-07-26T09:07:58.571Z,32.55
2018-07-26T09:13:03.373Z,32.70
2018-07-26T09:18:08.184Z,32.88
2018-07-26T09:23:13.027Z,32.79
2018-07-26T09:28:17.769Z,32.34
2018-07-26T09:33:22.573Z,32.92
2018-07-26T09:38:27.295Z,32.90
2018-07-26T09:43:32.089Z,32.86
2018-07-26T09:48:37.131Z,33.22
2018-07-26T09:53:41.894Z,32.49
2018-07-26T09:58:46.654Z,32.52
2018-07-26T10:03:51.345Z,32.44
2018-07-26T10:08:56.130Z,32.84
2018-07-26T10:14:00.897Z,32.84
2018-07-26T10:19:05.810Z,33.22
2018-07-26T10:24:10.558Z,32.95
2018-07-26T10:29:15.306Z,33.28
2018-07-26T10:34:20.043Z,33.54
2018-07-26T10:39:24.946Z,33.72
2018-07-26T10:44:29.681Z,33.90
2018-07-26T10:49:34.416Z,33.77
2018-07-26T10:54:39.157Z,33.53
2018-07-26T10:59:43.974Z,33.69
2018-07-26T11:04:48.668Z,34.09
2018-07-26T11:09:53.462Z,33.29
2018-07-26T11:15:18.669Z,33.90
2018-07-26T11:20:23.585Z,34.24
2018-07-26T11:25:28.372Z,34.55
2018-07-26T11:30:33.137Z,33.85
2018-07-26T11:35:37.886Z,33.83
2018-07-26T11:40:42.659Z,34.12
2018-07-26T11:45:47.374Z,34.11
2018-07-26T11:50:52.068Z,34.62
2018-07-26T11:55:56.781Z,33.49
2018-07-26T12:01:01.442Z,33.65
2018-07-26T12:06:06.210Z,34.40
2018-07-26T12:11:11.023Z,34.56
2018-07-26T12:16:15.885Z,34.69
2018-07-26T12:21:20.611Z,34.73
2018-07-26T12:26:25.359Z,34.62
2018-07-26T12:31:30.252Z,34.10
2018-07-26T12:36:34.980Z,34.18
2018-07-26T12:41:39.914Z,34.53
2018-07-26T12:46:44.617Z,34.52
2018-07-26T12:51:49.312Z,34.56
2018-07-26T12:56:53.989Z,34.78
2018-07-26T13:01:58.754Z,35.27
2018-07-26T13:07:04.469Z,35.39
2018-07-26T13:12:09.372Z,35.48
2018-07-26T13:17:14.351Z,34.74
2018-07-26T13:22:19.117Z,34.85
2018-07-26T13:27:24.000Z,35.78
2018-07-26T13:32:28.704Z,34.94
2018-07-26T13:37:33.394Z,35.49
2018-07-26T13:42:38.158Z,35.78
2018-07-26T13:47:43.039Z,35.33
2018-07-26T13:52:48.500Z,35.38
2018-07-26T13:57:53.387Z,35.66
2018-07-26T14:02:58.143Z,35.24
2018-07-26T14:08:02.604Z,35.09
2018-07-26T14:13:07.333Z,35.73
2018-07-26T14:18:12.002Z,35.03
2018-07-26T14:23:22.018Z,34.26
2018-07-26T14:28:26.700Z,34.81
2018-07-26T14:33:31.750Z,35.79
2018-07-26T14:38:36.561Z,36.15
2018-07-26T14:43:41.241Z,35.54
2018-07-26T14:48:45.976Z,34.88
2018-07-26T14:53:50.746Z,34.20
2018-07-26T14:58:55.558Z,34.27
2018-07-26T15:04:00.666Z,34.68
2018-07-26T15:09:08.684Z,34.85
2018-07-26T15:14:13.536Z,34.56
2018-07-26T15:19:18.254Z,35.40
2018-07-26T15:24:23.094Z,35.48
2018-07-26T15:29:27.860Z,35.33
2018-07-26T15:34:32.780Z,35.11
2018-07-26T15:39:37.491Z,35.11
2018-07-26T15:44:42.357Z,35.02
2018-07-26T15:49:47.043Z,34.73
2018-07-26T15:54:51.842Z,34.63
2018-07-26T15:59:56.630Z,34.86
2018-07-26T16:05:01.320Z,34.83
2018-07-26T16:10:06.404Z,35.26
2018-07-26T16:15:14.134Z,34.95
2018-07-26T16:20:18.919Z,34.49
2018-07-26T16:25:24.971Z,34.84
2018-07-26T16:30:29.810Z,34.65
2018-07-26T16:35:34.790Z,34.86
2018-07-26T16:40:39.578Z,35.05
2018-07-26T16:45:44.429Z,35.06
2018-07-26T16:50:50.073Z,35.22
2018-07-26T16:55:54.825Z,35.01
2018-07-26T17:00:59.555Z,35.25
2018-07-26T17:06:04.601Z,34.72
2018-07-26T17:11:10.051Z,35.09
2018-07-26T17:16:15.293Z,35.11
2018-07-26T17:21:20.083Z,34.92
2018-07-26T17:26:24.926Z,35.14
2018-07-26T17:31:29.708Z,35.13
2018-07-26T17:36:34.493Z,34.59
2018-07-26T17:41:39.341Z,33.49
2018-07-26T17:46:44.163Z,32.89
2018-07-26T17:51:48.906Z,32.58
2018-07-26T17:56:54.727Z,32.33
2018-07-26T18:01:59.547Z,32.11
2018-07-26T18:07:04.434Z,31.87
2018-07-26T18:12:09.170Z,31.62
2018-07-26T18:17:14.033Z,31.40
2018-07-26T18:22:18.843Z,31.15
2018-07-26T18:27:23.653Z,30.62
2018-07-26T18:32:28.531Z,30.31
2018-07-26T18:37:33.390Z,30.01
2018-07-26T18:42:38.292Z,29.77
2018-07-26T18:47:43.065Z,29.57
2018-07-26T18:52:47.897Z,29.34
2018-07-26T18:57:52.630Z,28.79
2018-07-26T19:02:57.477Z,28.41
2018-07-26T19:08:02.201Z,28.05
2018-07-26T19:13:06.910Z,27.58
2018-07-26T19:18:11.943Z,27.18
2018-07-26T19:23:16.856Z,26.78
2018-07-26T19:28:22.208Z,26.30
2018-07-26T19:33:27.001Z,25.98
2018-07-26T19:38:32.010Z,25.72
2018-07-26T19:43:36.818Z,25.40
2018-07-26T19:48:42.723Z,25.24
2018-07-26T19:53:47.674Z,25.26
2018-07-26T19:58:52.667Z,25.08
2018-07-26T20:03:57.609Z,24.83
2018-07-26T20:09:02.507Z,24.51
2018-07-26T20:14:08.334Z,24.27
2018-07-26T20:19:13.180Z,24.12
2018-07-26T20:24:17.922Z,23.90
2018-07-26T20:29:22.718Z,23.69
2018-07-26T20:34:27.577Z,23.64
2018-07-26T20:39:32.449Z,23.44
2018-07-26T20:44:37.215Z,23.27
2018-07-26T20:49:42.161Z,23.11
2018-07-26T20:54:46.919Z,22.93
2018-07-26T20:59:51.724Z,22.77
2018-07-26T21:04:56.481Z,22.76
2018-07-26T21:10:01.868Z,22.64
2018-07-26T21:15:08.577Z,22.51
2018-07-26T21:20:13.414Z,22.34
2018-07-26T21:25:18.102Z,22.21
2018-07-26T21:30:22.995Z,22.13
2018-07-26T21:35:27.772Z,21.90
2018-07-26T21:40:33.564Z,21.78
2018-07-26T21:45:38.384Z,21.68
2018-07-26T21:50:43.198Z,21.71
2018-07-26T21:55:47.949Z,21.54
2018-07-26T22:00:59.493Z,21.46
2018-07-26T22:06:05.063Z,21.22
2018-07-26T22:11:09.819Z,21.13
2018-07-26T22:16:14.654Z,20.96
2018-07-26T22:21:19.499Z,20.83
2018-07-26T22:26:24.252Z,20.78
2018-07-26T22:31:29.287Z,20.73
2018-07-26T22:36:34.318Z,20.66
2018-07-26T22:41:39.109Z,20.64
2018-07-26T22:46:43.759Z,20.42
2018-07-26T22:51:48.610Z,20.37
2018-07-26T22:56:53.336Z,20.27
2018-07-26T23:01:58.241Z,20.15
2018-07-26T23:07:06.430Z,20.04
2018-07-26T23:12:11.156Z,19.93
2018-07-26T23:17:15.934Z,19.84
2018-07-26T23:22:20.698Z,19.77
2018-07-26T23:27:25.456Z,19.68
2018-07-26T23:32:30.205Z,19.60
2018-07-26T23:37:35.055Z,19.50
2018-07-26T23:42:40.386Z,19.60
2018-07-26T23:47:45.179Z,19.60
2018-07-26T23:52:49.955Z,19.50
2018-07-26T23:57:54.792Z,19.30
